sensor_id;sensor_type;location;lat;lon;timestamp;P1;durP1;ratioP1;P2;durP2;ratioP2
61435;SDS011;47304;47.456;19.160;2023-04-24T00:01:32;11.00;;;6.80;;
61435;SDS011;47304;47.456;19.160;2023-04-24T00:03:58;11.60;;;6.60;;
61435;SDS011;47304;47.456;19.160;2023-04-24T00:06:25;10.70;;;6.40;;
61435;SDS011;47304;47.456;19.160;2023-04-24T00:08:52;10.70;;;6.70;;
61435;SDS011;47304;47.456;19.160;2023-04-24T00:11:19;10.90;;;6.50;;
61435;SDS011;47304;47.456;19.160;2023-04-24T00:13:45;11.10;;;6.80;;
61435;SDS011;47304;47.456;19.160;2023-04-24T00:16:12;12.00;;;6.50;;
61435;SDS011;47304;47.456;19.160;2023-04-24T00:18:38;12.10;;;6.50;;
61435;SDS011;47304;47.456;19.160;2023-04-24T00:21:05;10.20;;;6.60;;
61435;SDS011;47304;47.456;19.160;2023-04-24T00:23:31;13.10;;;7.20;;
61435;SDS011;47304;47.456;19.160;2023-04-24T00:25:57;13.80;;;7.20;;
61435;SDS011;47304;47.456;19.160;2023-04-24T00:28:24;13.20;;;7.00;;
61435;SDS011;47304;47.456;19.160;2023-04-24T00:30:50;11.60;;;6.90;;
61435;SDS011;47304;47.456;19.160;2023-04-24T00:33:17;11.10;;;6.50;;
61435;SDS011;47304;47.456;19.160;2023-04-24T00:35:43;12.40;;;6.90;;
61435;SDS011;47304;47.456;19.160;2023-04-24T00:38:10;10.90;;;6.40;;
61435;SDS011;47304;47.456;19.160;2023-04-24T00:40:36;12.00;;;6.50;;
61435;SDS011;47304;47.456;19.160;2023-04-24T00:43:03;10.90;;;6.80;;
61435;SDS011;47304;47.456;19.160;2023-04-24T00:45:30;12.10;;;6.60;;
61435;SDS011;47304;47.456;19.160;2023-04-24T00:47:56;12.30;;;7.30;;
61435;SDS011;47304;47.456;19.160;2023-04-24T00:50:23;10.40;;;6.50;;
61435;SDS011;47304;47.456;19.160;2023-04-24T00:52:50;12.30;;;7.00;;
61435;SDS011;47304;47.456;19.160;2023-04-24T00:55:17;10.80;;;6.50;;
61435;SDS011;47304;47.456;19.160;2023-04-24T00:57:44;12.10;;;6.80;;
61435;SDS011;47304;47.456;19.160;2023-04-24T01:00:11;12.10;;;6.80;;
61435;SDS011;47304;47.456;19.160;2023-04-24T01:02:39;12.50;;;7.20;;
61435;SDS011;47304;47.456;19.160;2023-04-24T01:05:07;12.40;;;7.50;;
61435;SDS011;47304;47.456;19.160;2023-04-24T01:07:34;11.30;;;6.90;;
61435;SDS011;47304;47.456;19.160;2023-04-24T01:10:01;11.70;;;6.80;;
61435;SDS011;47304;47.456;19.160;2023-04-24T01:12:27;13.30;;;6.90;;
61435;SDS011;47304;47.456;19.160;2023-04-24T01:14:54;12.30;;;7.00;;
61435;SDS011;47304;47.456;19.160;2023-04-24T01:17:20;11.60;;;6.20;;
61435;SDS011;47304;47.456;19.160;2023-04-24T01:19:47;11.50;;;7.20;;
61435;SDS011;47304;47.456;19.160;2023-04-24T01:22:14;12.90;;;7.30;;
61435;SDS011;47304;47.456;19.160;2023-04-24T01:24:41;11.50;;;7.50;;
61435;SDS011;47304;47.456;19.160;2023-04-24T01:27:09;13.10;;;8.00;;
61435;SDS011;47304;47.456;19.160;2023-04-24T01:29:36;13.90;;;7.70;;
61435;SDS011;47304;47.456;19.160;2023-04-24T01:32:03;10.90;;;7.10;;
61435;SDS011;47304;47.456;19.160;2023-04-24T01:34:31;11.00;;;6.80;;
61435;SDS011;47304;47.456;19.160;2023-04-24T01:36:58;13.00;;;7.90;;
61435;SDS011;47304;47.456;19.160;2023-04-24T01:39:24;12.00;;;6.90;;
61435;SDS011;47304;47.456;19.160;2023-04-24T01:41:52;12.70;;;7.10;;
61435;SDS011;47304;47.456;19.160;2023-04-24T01:44:19;11.70;;;6.60;;
61435;SDS011;47304;47.456;19.160;2023-04-24T01:46:45;13.20;;;7.40;;
61435;SDS011;47304;47.456;19.160;2023-04-24T01:49:12;13.50;;;6.90;;
61435;SDS011;47304;47.456;19.160;2023-04-24T01:51:38;13.40;;;7.50;;
61435;SDS011;47304;47.456;19.160;2023-04-24T01:54:05;13.00;;;7.00;;
61435;SDS011;47304;47.456;19.160;2023-04-24T01:56:33;14.20;;;7.50;;
61435;SDS011;47304;47.456;19.160;2023-04-24T01:59:00;11.90;;;7.50;;
61435;SDS011;47304;47.456;19.160;2023-04-24T02:01:33;14.50;;;7.80;;
61435;SDS011;47304;47.456;19.160;2023-04-24T02:04:00;12.60;;;6.90;;
61435;SDS011;47304;47.456;19.160;2023-04-24T02:06:27;14.10;;;8.20;;
61435;SDS011;47304;47.456;19.160;2023-04-24T02:08:54;15.60;;;7.80;;
61435;SDS011;47304;47.456;19.160;2023-04-24T02:11:20;11.80;;;7.70;;
61435;SDS011;47304;47.456;19.160;2023-04-24T02:13:47;12.20;;;7.70;;
61435;SDS011;47304;47.456;19.160;2023-04-24T02:16:13;11.30;;;7.60;;
61435;SDS011;47304;47.456;19.160;2023-04-24T02:18:40;13.60;;;8.00;;
61435;SDS011;47304;47.456;19.160;2023-04-24T02:21:06;13.90;;;8.50;;
61435;SDS011;47304;47.456;19.160;2023-04-24T02:23:33;13.50;;;8.40;;
61435;SDS011;47304;47.456;19.160;2023-04-24T02:25:59;13.50;;;7.50;;
61435;SDS011;47304;47.456;19.160;2023-04-24T02:28:26;13.40;;;7.40;;
61435;SDS011;47304;47.456;19.160;2023-04-24T02:30:52;12.80;;;7.20;;
61435;SDS011;47304;47.456;19.160;2023-04-24T02:33:19;14.30;;;8.70;;
61435;SDS011;47304;47.456;19.160;2023-04-24T02:35:45;10.90;;;7.10;;
61435;SDS011;47304;47.456;19.160;2023-04-24T02:38:12;12.10;;;7.30;;
61435;SDS011;47304;47.456;19.160;2023-04-24T02:40:38;12.20;;;8.00;;
61435;SDS011;47304;47.456;19.160;2023-04-24T02:43:05;11.60;;;8.20;;
61435;SDS011;47304;47.456;19.160;2023-04-24T02:45:31;13.50;;;7.90;;
61435;SDS011;47304;47.456;19.160;2023-04-24T02:47:58;13.20;;;8.00;;
61435;SDS011;47304;47.456;19.160;2023-04-24T02:50:24;14.30;;;8.00;;
61435;SDS011;47304;47.456;19.160;2023-04-24T02:52:51;13.50;;;8.00;;
61435;SDS011;47304;47.456;19.160;2023-04-24T02:55:17;11.70;;;8.10;;
61435;SDS011;47304;47.456;19.160;2023-04-24T02:57:44;11.90;;;7.80;;
61435;SDS011;47304;47.456;19.160;2023-04-24T03:00:10;12.90;;;7.40;;
61435;SDS011;47304;47.456;19.160;2023-04-24T03:02:37;14.20;;;7.80;;
61435;SDS011;47304;47.456;19.160;2023-04-24T03:05:04;13.30;;;8.00;;
61435;SDS011;47304;47.456;19.160;2023-04-24T03:07:31;16.30;;;7.80;;
61435;SDS011;47304;47.456;19.160;2023-04-24T03:09:58;12.30;;;7.60;;
61435;SDS011;47304;47.456;19.160;2023-04-24T03:12:24;12.20;;;7.80;;
61435;SDS011;47304;47.456;19.160;2023-04-24T03:14:51;13.00;;;7.60;;
61435;SDS011;47304;47.456;19.160;2023-04-24T03:17:17;12.00;;;8.10;;
61435;SDS011;47304;47.456;19.160;2023-04-24T03:19:44;15.60;;;8.50;;
61435;SDS011;47304;47.456;19.160;2023-04-24T03:22:11;12.10;;;8.50;;
61435;SDS011;47304;47.456;19.160;2023-04-24T03:24:37;13.00;;;8.00;;
61435;SDS011;47304;47.456;19.160;2023-04-24T03:27:04;11.80;;;8.00;;
61435;SDS011;47304;47.456;19.160;2023-04-24T03:29:30;11.30;;;7.20;;
61435;SDS011;47304;47.456;19.160;2023-04-24T03:31:57;14.50;;;8.70;;
61435;SDS011;47304;47.456;19.160;2023-04-24T03:34:23;18.10;;;9.00;;
61435;SDS011;47304;47.456;19.160;2023-04-24T03:36:50;11.40;;;8.20;;
61435;SDS011;47304;47.456;19.160;2023-04-24T03:39:16;13.10;;;8.60;;
61435;SDS011;47304;47.456;19.160;2023-04-24T03:41:43;13.60;;;8.80;;
61435;SDS011;47304;47.456;19.160;2023-04-24T03:44:09;12.50;;;8.20;;
61435;SDS011;47304;47.456;19.160;2023-04-24T03:46:36;14.50;;;8.80;;
61435;SDS011;47304;47.456;19.160;2023-04-24T03:49:02;15.70;;;9.10;;
61435;SDS011;47304;47.456;19.160;2023-04-24T03:51:29;13.60;;;9.20;;
61435;SDS011;47304;47.456;19.160;2023-04-24T03:53:55;13.30;;;9.00;;
61435;SDS011;47304;47.456;19.160;2023-04-24T03:56:22;13.50;;;8.50;;
61435;SDS011;47304;47.456;19.160;2023-04-24T03:58:48;13.50;;;8.40;;
61435;SDS011;47304;47.456;19.160;2023-04-24T04:01:15;13.70;;;8.80;;
61435;SDS011;47304;47.456;19.160;2023-04-24T04:03:41;13.90;;;8.90;;
61435;SDS011;47304;47.456;19.160;2023-04-24T04:06:08;17.90;;;8.80;;
61435;SDS011;47304;47.456;19.160;2023-04-24T04:08:35;15.10;;;8.60;;
61435;SDS011;47304;47.456;19.160;2023-04-24T04:11:01;15.10;;;9.80;;
61435;SDS011;47304;47.456;19.160;2023-04-24T04:13:30;13.00;;;9.00;;
61435;SDS011;47304;47.456;19.160;2023-04-24T04:15:57;12.90;;;8.60;;
61435;SDS011;47304;47.456;19.160;2023-04-24T04:18:23;15.10;;;9.00;;
61435;SDS011;47304;47.456;19.160;2023-04-24T04:20:50;12.90;;;9.10;;
61435;SDS011;47304;47.456;19.160;2023-04-24T04:23:16;14.60;;;9.20;;
61435;SDS011;47304;47.456;19.160;2023-04-24T04:25:43;14.50;;;9.20;;
61435;SDS011;47304;47.456;19.160;2023-04-24T04:28:09;16.80;;;9.00;;
61435;SDS011;47304;47.456;19.160;2023-04-24T04:30:36;16.60;;;8.30;;
61435;SDS011;47304;47.456;19.160;2023-04-24T04:33:02;14.50;;;8.60;;
61435;SDS011;47304;47.456;19.160;2023-04-24T04:35:29;12.10;;;8.40;;
61435;SDS011;47304;47.456;19.160;2023-04-24T04:37:55;12.60;;;8.50;;
61435;SDS011;47304;47.456;19.160;2023-04-24T04:40:22;14.10;;;8.80;;
61435;SDS011;47304;47.456;19.160;2023-04-24T04:42:48;12.70;;;8.60;;
61435;SDS011;47304;47.456;19.160;2023-04-24T04:45:15;15.60;;;8.60;;
61435;SDS011;47304;47.456;19.160;2023-04-24T04:47:41;13.60;;;8.90;;
61435;SDS011;47304;47.456;19.160;2023-04-24T04:50:08;12.50;;;8.50;;
61435;SDS011;47304;47.456;19.160;2023-04-24T04:52:35;14.50;;;8.50;;
61435;SDS011;47304;47.456;19.160;2023-04-24T04:55:01;15.40;;;9.00;;
61435;SDS011;47304;47.456;19.160;2023-04-24T04:57:28;12.80;;;8.30;;
61435;SDS011;47304;47.456;19.160;2023-04-24T04:59:55;14.10;;;8.10;;
61435;SDS011;47304;47.456;19.160;2023-04-24T05:02:21;14.70;;;8.80;;
61435;SDS011;47304;47.456;19.160;2023-04-24T05:04:48;16.70;;;8.90;;
61435;SDS011;47304;47.456;19.160;2023-04-24T05:07:15;14.50;;;8.80;;
61435;SDS011;47304;47.456;19.160;2023-04-24T05:09:41;12.50;;;8.20;;
61435;SDS011;47304;47.456;19.160;2023-04-24T05:12:08;13.50;;;8.60;;
61435;SDS011;47304;47.456;19.160;2023-04-24T05:14:34;13.90;;;8.50;;
61435;SDS011;47304;47.456;19.160;2023-04-24T05:17:01;15.30;;;8.80;;
61435;SDS011;47304;47.456;19.160;2023-04-24T05:19:28;13.70;;;8.10;;
61435;SDS011;47304;47.456;19.160;2023-04-24T05:21:54;13.10;;;8.50;;
61435;SDS011;47304;47.456;19.160;2023-04-24T05:24:21;15.50;;;8.40;;
61435;SDS011;47304;47.456;19.160;2023-04-24T05:26:47;13.20;;;8.20;;
61435;SDS011;47304;47.456;19.160;2023-04-24T05:29:14;14.20;;;9.30;;
61435;SDS011;47304;47.456;19.160;2023-04-24T05:31:40;13.40;;;8.60;;
61435;SDS011;47304;47.456;19.160;2023-04-24T05:34:07;13.80;;;8.00;;
61435;SDS011;47304;47.456;19.160;2023-04-24T05:36:33;15.70;;;8.40;;
61435;SDS011;47304;47.456;19.160;2023-04-24T05:39:00;18.10;;;10.70;;
61435;SDS011;47304;47.456;19.160;2023-04-24T05:41:26;15.80;;;8.60;;
61435;SDS011;47304;47.456;19.160;2023-04-24T05:43:53;14.50;;;8.90;;
61435;SDS011;47304;47.456;19.160;2023-04-24T05:46:19;13.80;;;8.30;;
61435;SDS011;47304;47.456;19.160;2023-04-24T05:48:46;13.40;;;8.80;;
61435;SDS011;47304;47.456;19.160;2023-04-24T05:51:12;14.20;;;9.40;;
61435;SDS011;47304;47.456;19.160;2023-04-24T05:53:39;19.90;;;11.00;;
61435;SDS011;47304;47.456;19.160;2023-04-24T05:56:05;25.50;;;14.00;;
61435;SDS011;47304;47.456;19.160;2023-04-24T05:58:32;24.50;;;12.10;;
61435;SDS011;47304;47.456;19.160;2023-04-24T06:00:58;14.20;;;9.60;;
61435;SDS011;47304;47.456;19.160;2023-04-24T06:03:25;14.00;;;8.90;;
61435;SDS011;47304;47.456;19.160;2023-04-24T06:05:51;20.10;;;11.50;;
61435;SDS011;47304;47.456;19.160;2023-04-24T06:08:18;15.80;;;9.10;;
61435;SDS011;47304;47.456;19.160;2023-04-24T06:10:45;14.70;;;8.40;;
61435;SDS011;47304;47.456;19.160;2023-04-24T06:13:11;16.00;;;10.00;;
61435;SDS011;47304;47.456;19.160;2023-04-24T06:15:38;16.30;;;10.00;;
61435;SDS011;47304;47.456;19.160;2023-04-24T06:18:04;14.90;;;10.00;;
61435;SDS011;47304;47.456;19.160;2023-04-24T06:20:31;15.90;;;9.60;;
61435;SDS011;47304;47.456;19.160;2023-04-24T06:22:57;14.90;;;9.00;;
61435;SDS011;47304;47.456;19.160;2023-04-24T06:25:25;14.80;;;8.70;;
61435;SDS011;47304;47.456;19.160;2023-04-24T06:27:52;14.10;;;9.00;;
61435;SDS011;47304;47.456;19.160;2023-04-24T06:30:18;13.10;;;8.50;;
61435;SDS011;47304;47.456;19.160;2023-04-24T06:32:45;18.20;;;9.00;;
61435;SDS011;47304;47.456;19.160;2023-04-24T06:35:11;13.00;;;8.10;;
61435;SDS011;47304;47.456;19.160;2023-04-24T06:37:39;12.10;;;8.60;;
61435;SDS011;47304;47.456;19.160;2023-04-24T06:40:06;13.00;;;8.10;;
61435;SDS011;47304;47.456;19.160;2023-04-24T06:42:34;14.00;;;9.10;;
61435;SDS011;47304;47.456;19.160;2023-04-24T06:45:00;12.90;;;8.00;;
61435;SDS011;47304;47.456;19.160;2023-04-24T06:47:27;14.10;;;9.00;;
61435;SDS011;47304;47.456;19.160;2023-04-24T06:49:53;16.40;;;8.90;;
61435;SDS011;47304;47.456;19.160;2023-04-24T06:52:20;14.40;;;9.50;;
61435;SDS011;47304;47.456;19.160;2023-04-24T06:54:47;14.70;;;8.90;;
61435;SDS011;47304;47.456;19.160;2023-04-24T06:57:13;14.50;;;9.80;;
61435;SDS011;47304;47.456;19.160;2023-04-24T06:59:40;13.80;;;9.40;;
61435;SDS011;47304;47.456;19.160;2023-04-24T07:02:06;16.50;;;11.20;;
61435;SDS011;47304;47.456;19.160;2023-04-24T07:04:33;14.90;;;10.00;;
61435;SDS011;47304;47.456;19.160;2023-04-24T07:07:00;27.20;;;15.50;;
61435;SDS011;47304;47.456;19.160;2023-04-24T07:09:26;15.50;;;10.00;;
61435;SDS011;47304;47.456;19.160;2023-04-24T07:11:53;25.50;;;14.10;;
61435;SDS011;47304;47.456;19.160;2023-04-24T07:14:20;14.70;;;10.10;;
61435;SDS011;47304;47.456;19.160;2023-04-24T07:16:46;13.40;;;8.80;;
61435;SDS011;47304;47.456;19.160;2023-04-24T07:19:13;13.90;;;9.10;;
61435;SDS011;47304;47.456;19.160;2023-04-24T07:21:40;15.50;;;8.90;;
61435;SDS011;47304;47.456;19.160;2023-04-24T07:24:06;13.20;;;8.30;;
61435;SDS011;47304;47.456;19.160;2023-04-24T07:26:33;14.10;;;9.00;;
61435;SDS011;47304;47.456;19.160;2023-04-24T07:28:59;13.60;;;9.50;;
61435;SDS011;47304;47.456;19.160;2023-04-24T07:31:26;15.70;;;9.40;;
61435;SDS011;47304;47.456;19.160;2023-04-24T07:33:52;13.50;;;9.20;;
61435;SDS011;47304;47.456;19.160;2023-04-24T07:36:19;17.00;;;9.20;;
61435;SDS011;47304;47.456;19.160;2023-04-24T07:38:45;14.00;;;9.20;;
61435;SDS011;47304;47.456;19.160;2023-04-24T07:41:12;14.00;;;9.80;;
61435;SDS011;47304;47.456;19.160;2023-04-24T07:43:40;12.90;;;9.30;;
61435;SDS011;47304;47.456;19.160;2023-04-24T07:46:07;15.60;;;10.50;;
61435;SDS011;47304;47.456;19.160;2023-04-24T07:48:34;15.40;;;9.90;;
61435;SDS011;47304;47.456;19.160;2023-04-24T07:51:01;13.50;;;9.20;;
61435;SDS011;47304;47.456;19.160;2023-04-24T07:53:28;12.90;;;9.50;;
61435;SDS011;47304;47.456;19.160;2023-04-24T07:55:55;15.70;;;10.00;;
61435;SDS011;47304;47.456;19.160;2023-04-24T07:58:22;15.20;;;10.40;;
61435;SDS011;47304;47.456;19.160;2023-04-24T08:00:49;18.90;;;12.30;;
61435;SDS011;47304;47.456;19.160;2023-04-24T08:03:15;17.30;;;10.30;;
61435;SDS011;47304;47.456;19.160;2023-04-24T08:05:42;15.60;;;10.60;;
61435;SDS011;47304;47.456;19.160;2023-04-24T08:08:08;13.70;;;10.00;;
61435;SDS011;47304;47.456;19.160;2023-04-24T08:10:35;14.00;;;10.10;;
61435;SDS011;47304;47.456;19.160;2023-04-24T08:13:01;16.40;;;10.10;;
61435;SDS011;47304;47.456;19.160;2023-04-24T08:15:28;14.80;;;10.10;;
61435;SDS011;47304;47.456;19.160;2023-04-24T08:17:55;14.20;;;10.20;;
61435;SDS011;47304;47.456;19.160;2023-04-24T08:20:24;14.80;;;9.40;;
61435;SDS011;47304;47.456;19.160;2023-04-24T08:22:50;12.90;;;7.60;;
61435;SDS011;47304;47.456;19.160;2023-04-24T08:25:17;14.80;;;9.30;;
61435;SDS011;47304;47.456;19.160;2023-04-24T08:27:43;15.40;;;9.00;;
61435;SDS011;47304;47.456;19.160;2023-04-24T08:30:10;11.70;;;7.50;;
61435;SDS011;47304;47.456;19.160;2023-04-24T08:32:37;13.00;;;8.40;;
61435;SDS011;47304;47.456;19.160;2023-04-24T08:35:03;11.30;;;7.70;;
61435;SDS011;47304;47.456;19.160;2023-04-24T08:37:30;14.10;;;9.00;;
61435;SDS011;47304;47.456;19.160;2023-04-24T08:39:57;12.50;;;8.60;;
61435;SDS011;47304;47.456;19.160;2023-04-24T08:42:23;14.30;;;9.10;;
61435;SDS011;47304;47.456;19.160;2023-04-24T08:44:50;12.80;;;8.60;;
61435;SDS011;47304;47.456;19.160;2023-04-24T08:47:17;12.50;;;8.20;;
61435;SDS011;47304;47.456;19.160;2023-04-24T08:49:46;15.30;;;8.50;;
61435;SDS011;47304;47.456;19.160;2023-04-24T08:52:14;12.40;;;7.90;;
61435;SDS011;47304;47.456;19.160;2023-04-24T08:54:41;15.30;;;9.70;;
61435;SDS011;47304;47.456;19.160;2023-04-24T08:57:09;14.30;;;9.10;;
61435;SDS011;47304;47.456;19.160;2023-04-24T08:59:36;13.70;;;8.90;;
61435;SDS011;47304;47.456;19.160;2023-04-24T09:02:04;13.30;;;7.80;;
61435;SDS011;47304;47.456;19.160;2023-04-24T09:04:31;12.60;;;7.20;;
61435;SDS011;47304;47.456;19.160;2023-04-24T09:07:03;11.30;;;7.30;;
61435;SDS011;47304;47.456;19.160;2023-04-24T09:09:32;11.50;;;6.80;;
61435;SDS011;47304;47.456;19.160;2023-04-24T09:12:00;9.60;;;5.80;;
61435;SDS011;47304;47.456;19.160;2023-04-24T09:14:27;11.30;;;6.10;;
61435;SDS011;47304;47.456;19.160;2023-04-24T09:16:54;11.10;;;6.60;;
61435;SDS011;47304;47.456;19.160;2023-04-24T09:19:21;10.50;;;7.00;;
61435;SDS011;47304;47.456;19.160;2023-04-24T09:21:47;12.20;;;6.50;;
61435;SDS011;47304;47.456;19.160;2023-04-24T09:24:15;11.00;;;6.70;;
61435;SDS011;47304;47.456;19.160;2023-04-24T09:26:43;10.80;;;6.30;;
61435;SDS011;47304;47.456;19.160;2023-04-24T09:29:14;9.30;;;6.20;;
61435;SDS011;47304;47.456;19.160;2023-04-24T09:31:42;14.80;;;6.90;;
61435;SDS011;47304;47.456;19.160;2023-04-24T09:34:10;10.20;;;6.60;;
61435;SDS011;47304;47.456;19.160;2023-04-24T09:36:38;10.40;;;6.90;;
61435;SDS011;47304;47.456;19.160;2023-04-24T09:39:06;10.70;;;6.30;;
61435;SDS011;47304;47.456;19.160;2023-04-24T09:41:35;12.00;;;6.00;;
61435;SDS011;47304;47.456;19.160;2023-04-24T09:46:44;9.90;;;6.50;;
61435;SDS011;47304;47.456;19.160;2023-04-24T09:49:15;10.30;;;6.10;;
61435;SDS011;47304;47.456;19.160;2023-04-24T09:51:43;10.00;;;5.60;;
61435;SDS011;47304;47.456;19.160;2023-04-24T09:54:19;10.10;;;6.40;;
61435;SDS011;47304;47.456;19.160;2023-04-24T09:56:48;10.20;;;6.60;;
61435;SDS011;47304;47.456;19.160;2023-04-24T09:59:17;10.10;;;5.70;;
61435;SDS011;47304;47.456;19.160;2023-04-24T10:01:45;14.30;;;6.30;;
61435;SDS011;47304;47.456;19.160;2023-04-24T10:04:18;10.00;;;5.90;;
61435;SDS011;47304;47.456;19.160;2023-04-24T10:06:47;11.80;;;6.40;;
61435;SDS011;47304;47.456;19.160;2023-04-24T10:09:15;10.40;;;6.10;;
61435;SDS011;47304;47.456;19.160;2023-04-24T10:11:43;8.90;;;5.50;;
61435;SDS011;47304;47.456;19.160;2023-04-24T10:14:15;10.30;;;6.10;;
61435;SDS011;47304;47.456;19.160;2023-04-24T10:16:45;9.40;;;5.60;;
61435;SDS011;47304;47.456;19.160;2023-04-24T10:19:13;18.40;;;9.80;;
61435;SDS011;47304;47.456;19.160;2023-04-24T10:21:41;9.70;;;5.50;;
61435;SDS011;47304;47.456;19.160;2023-04-24T10:24:09;10.70;;;5.10;;
61435;SDS011;47304;47.456;19.160;2023-04-24T10:26:37;10.20;;;5.40;;
61435;SDS011;47304;47.456;19.160;2023-04-24T10:29:04;12.30;;;6.20;;
61435;SDS011;47304;47.456;19.160;2023-04-24T10:31:31;9.60;;;5.50;;
61435;SDS011;47304;47.456;19.160;2023-04-24T10:33:58;9.50;;;5.80;;
61435;SDS011;47304;47.456;19.160;2023-04-24T10:36:26;9.00;;;4.90;;
61435;SDS011;47304;47.456;19.160;2023-04-24T10:38:55;12.70;;;6.30;;
61435;SDS011;47304;47.456;19.160;2023-04-24T10:41:23;10.10;;;5.70;;
61435;SDS011;47304;47.456;19.160;2023-04-24T10:44:07;10.90;;;6.10;;
61435;SDS011;47304;47.456;19.160;2023-04-24T10:46:35;12.30;;;6.90;;
61435;SDS011;47304;47.456;19.160;2023-04-24T10:49:03;9.30;;;6.30;;
61435;SDS011;47304;47.456;19.160;2023-04-24T10:51:53;8.60;;;6.00;;
61435;SDS011;47304;47.456;19.160;2023-04-24T10:56:52;11.10;;;6.60;;
61435;SDS011;47304;47.456;19.160;2023-04-24T10:59:26;10.10;;;6.40;;
61435;SDS011;47304;47.456;19.160;2023-04-24T11:02:00;9.70;;;5.20;;
61435;SDS011;47304;47.456;19.160;2023-04-24T11:04:30;10.40;;;6.30;;
61435;SDS011;47304;47.456;19.160;2023-04-24T11:06:58;10.50;;;6.70;;
61435;SDS011;47304;47.456;19.160;2023-04-24T11:09:28;11.30;;;6.60;;
61435;SDS011;47304;47.456;19.160;2023-04-24T11:12:10;11.40;;;5.40;;
61435;SDS011;47304;47.456;19.160;2023-04-24T11:17:35;9.60;;;5.90;;
61435;SDS011;47304;47.456;19.160;2023-04-24T11:20:07;11.10;;;5.90;;
61435;SDS011;47304;47.456;19.160;2023-04-24T11:22:53;9.30;;;5.50;;
61435;SDS011;47304;47.456;19.160;2023-04-24T11:25:21;9.90;;;6.60;;
61435;SDS011;47304;47.456;19.160;2023-04-24T11:27:48;15.70;;;7.30;;
61435;SDS011;47304;47.456;19.160;2023-04-24T11:30:19;11.10;;;6.70;;
61435;SDS011;47304;47.456;19.160;2023-04-24T11:32:52;10.90;;;6.80;;
61435;SDS011;47304;47.456;19.160;2023-04-24T11:35:22;11.20;;;6.60;;
61435;SDS011;47304;47.456;19.160;2023-04-24T11:37:49;12.40;;;7.80;;
61435;SDS011;47304;47.456;19.160;2023-04-24T11:40:38;11.50;;;7.50;;
61435;SDS011;47304;47.456;19.160;2023-04-24T11:43:05;11.00;;;7.10;;
61435;SDS011;47304;47.456;19.160;2023-04-24T11:45:33;11.60;;;7.40;;
61435;SDS011;47304;47.456;19.160;2023-04-24T11:48:00;10.80;;;7.10;;
61435;SDS011;47304;47.456;19.160;2023-04-24T11:50:29;11.70;;;7.20;;
61435;SDS011;47304;47.456;19.160;2023-04-24T11:52:55;11.30;;;7.00;;
61435;SDS011;47304;47.456;19.160;2023-04-24T11:55:23;12.90;;;7.70;;
61435;SDS011;47304;47.456;19.160;2023-04-24T11:57:52;13.20;;;8.50;;
61435;SDS011;47304;47.456;19.160;2023-04-24T12:00:27;15.10;;;8.40;;
61435;SDS011;47304;47.456;19.160;2023-04-24T12:03:09;11.30;;;6.90;;
61435;SDS011;47304;47.456;19.160;2023-04-24T12:05:37;13.10;;;7.60;;
61435;SDS011;47304;47.456;19.160;2023-04-24T12:08:05;11.40;;;7.80;;
61435;SDS011;47304;47.456;19.160;2023-04-24T12:10:32;11.60;;;7.20;;
61435;SDS011;47304;47.456;19.160;2023-04-24T12:12:59;12.00;;;6.90;;
61435;SDS011;47304;47.456;19.160;2023-04-24T12:15:26;10.70;;;6.10;;
61435;SDS011;47304;47.456;19.160;2023-04-24T12:17:54;9.70;;;5.50;;
61435;SDS011;47304;47.456;19.160;2023-04-24T12:20:29;9.20;;;4.30;;
61435;SDS011;47304;47.456;19.160;2023-04-24T12:22:57;9.20;;;4.50;;
61435;SDS011;47304;47.456;19.160;2023-04-24T12:25:26;7.80;;;3.90;;
61435;SDS011;47304;47.456;19.160;2023-04-24T12:27:55;9.50;;;4.50;;
61435;SDS011;47304;47.456;19.160;2023-04-24T12:30:38;7.80;;;4.10;;
61435;SDS011;47304;47.456;19.160;2023-04-24T12:33:06;7.90;;;4.60;;
61435;SDS011;47304;47.456;19.160;2023-04-24T12:35:33;10.30;;;5.60;;
61435;SDS011;47304;47.456;19.160;2023-04-24T12:38:10;10.20;;;6.10;;
61435;SDS011;47304;47.456;19.160;2023-04-24T12:40:37;10.70;;;5.70;;
61435;SDS011;47304;47.456;19.160;2023-04-24T12:43:17;11.00;;;6.50;;
61435;SDS011;47304;47.456;19.160;2023-04-24T12:45:45;11.50;;;6.40;;
61435;SDS011;47304;47.456;19.160;2023-04-24T12:48:13;9.80;;;5.60;;
61435;SDS011;47304;47.456;19.160;2023-04-24T12:50:40;8.70;;;4.60;;
61435;SDS011;47304;47.456;19.160;2023-04-24T12:53:11;9.10;;;5.40;;
61435;SDS011;47304;47.456;19.160;2023-04-24T12:55:37;10.10;;;4.40;;
61435;SDS011;47304;47.456;19.160;2023-04-24T12:58:04;10.60;;;4.80;;
61435;SDS011;47304;47.456;19.160;2023-04-24T13:00:30;9.40;;;4.60;;
61435;SDS011;47304;47.456;19.160;2023-04-24T13:02:57;8.90;;;3.50;;
61435;SDS011;47304;47.456;19.160;2023-04-24T13:05:24;8.20;;;3.80;;
61435;SDS011;47304;47.456;19.160;2023-04-24T13:07:51;10.40;;;3.80;;
61435;SDS011;47304;47.456;19.160;2023-04-24T13:10:17;8.70;;;4.00;;
61435;SDS011;47304;47.456;19.160;2023-04-24T13:12:44;7.20;;;3.40;;
61435;SDS011;47304;47.456;19.160;2023-04-24T13:15:10;9.30;;;3.70;;
61435;SDS011;47304;47.456;19.160;2023-04-24T13:17:38;8.20;;;3.90;;
61435;SDS011;47304;47.456;19.160;2023-04-24T13:20:05;9.70;;;3.60;;
61435;SDS011;47304;47.456;19.160;2023-04-24T13:22:32;10.20;;;4.10;;
61435;SDS011;47304;47.456;19.160;2023-04-24T13:24:58;6.90;;;3.50;;
61435;SDS011;47304;47.456;19.160;2023-04-24T13:27:25;7.70;;;3.40;;
61435;SDS011;47304;47.456;19.160;2023-04-24T13:29:51;8.80;;;3.20;;
61435;SDS011;47304;47.456;19.160;2023-04-24T13:32:18;10.00;;;4.20;;
61435;SDS011;47304;47.456;19.160;2023-04-24T13:34:44;9.40;;;4.30;;
61435;SDS011;47304;47.456;19.160;2023-04-24T13:37:11;9.50;;;5.70;;
61435;SDS011;47304;47.456;19.160;2023-04-24T13:39:37;8.70;;;4.10;;
61435;SDS011;47304;47.456;19.160;2023-04-24T13:42:04;8.70;;;4.00;;
61435;SDS011;47304;47.456;19.160;2023-04-24T13:44:31;8.60;;;4.60;;
61435;SDS011;47304;47.456;19.160;2023-04-24T13:46:57;8.20;;;3.70;;
61435;SDS011;47304;47.456;19.160;2023-04-24T13:49:24;7.50;;;4.00;;
61435;SDS011;47304;47.456;19.160;2023-04-24T13:51:52;8.10;;;4.00;;
61435;SDS011;47304;47.456;19.160;2023-04-24T13:54:20;10.30;;;4.70;;
61435;SDS011;47304;47.456;19.160;2023-04-24T13:56:46;8.80;;;4.10;;
61435;SDS011;47304;47.456;19.160;2023-04-24T13:59:13;8.80;;;4.00;;
61435;SDS011;47304;47.456;19.160;2023-04-24T14:01:39;8.90;;;4.60;;
61435;SDS011;47304;47.456;19.160;2023-04-24T14:04:06;10.50;;;5.00;;
61435;SDS011;47304;47.456;19.160;2023-04-24T14:06:33;9.60;;;4.50;;
61435;SDS011;47304;47.456;19.160;2023-04-24T14:08:59;20.20;;;10.30;;
61435;SDS011;47304;47.456;19.160;2023-04-24T14:11:26;9.80;;;5.10;;
61435;SDS011;47304;47.456;19.160;2023-04-24T14:13:53;8.30;;;4.30;;
61435;SDS011;47304;47.456;19.160;2023-04-24T14:16:21;8.90;;;3.90;;
61435;SDS011;47304;47.456;19.160;2023-04-24T14:18:47;8.00;;;4.10;;
61435;SDS011;47304;47.456;19.160;2023-04-24T14:21:14;9.50;;;4.70;;
61435;SDS011;47304;47.456;19.160;2023-04-24T14:23:40;10.70;;;4.00;;
61435;SDS011;47304;47.456;19.160;2023-04-24T14:26:07;9.60;;;4.30;;
61435;SDS011;47304;47.456;19.160;2023-04-24T14:28:34;8.40;;;4.20;;
61435;SDS011;47304;47.456;19.160;2023-04-24T14:31:00;8.90;;;4.10;;
61435;SDS011;47304;47.456;19.160;2023-04-24T14:33:27;8.90;;;4.70;;